createdAt,value
2022-12-23T00:00:55.320Z,0.8
2022-12-23T00:03:57.198Z,0.8
2022-12-23T00:06:55.653Z,0.8
2022-12-23T00:09:55.987Z,0.8
2022-12-23T00:12:57.596Z,0.8
2022-12-23T00:15:56.562Z,0.8
2022-12-23T00:18:56.558Z,0.8
2022-12-23T00:21:53.170Z,0.8
2022-12-23T00:24:57.127Z,0.8
2022-12-23T00:27:52.575Z,0.8
2022-12-23T00:30:54.052Z,0.8
2022-12-23T00:33:52.731Z,0.8
2022-12-23T00:36:53.001Z,0.8
2022-12-23T00:40:07.171Z,0.8
2022-12-23T00:42:54.860Z,0.8
2022-12-23T00:45:54.067Z,0.8
2022-12-23T00:48:53.972Z,0.8
2022-12-23T00:51:55.633Z,0.8
2022-12-23T00:54:59.327Z,0.8
2022-12-23T00:57:54.513Z,0.8
2022-12-23T01:00:56.616Z,0.8
2022-12-23T01:03:55.002Z,0.8
2022-12-23T01:06:55.175Z,0.8
2022-12-23T01:09:56.883Z,0.8
2022-12-23T01:12:55.656Z,0.8
2022-12-23T01:15:55.965Z,0.8
2022-12-23T01:18:56.259Z,0.8
2022-12-23T01:21:52.843Z,0.8
2022-12-23T01:24:56.576Z,0.8
2022-12-23T01:27:51.883Z,0.8
2022-12-23T01:30:53.402Z,0.8
2022-12-23T01:33:52.257Z,0.8
2022-12-23T01:36:52.462Z,0.8
2022-12-23T01:39:54.065Z,0.8
2022-12-23T01:42:52.943Z,0.8
2022-12-23T01:45:53.461Z,0.8
2022-12-23T01:48:54.847Z,0.8
2022-12-23T01:51:53.549Z,0.8
2022-12-23T01:54:53.790Z,0.8
2022-12-23T01:57:54.074Z,0.8
2022-12-23T02:00:55.961Z,0.8
2022-12-23T02:03:54.611Z,0.8
2022-12-23T02:06:54.879Z,0.8
2022-12-23T02:09:56.363Z,0.8
2022-12-23T02:12:55.215Z,0.8
2022-12-23T02:16:05.385Z,0.8
2022-12-23T02:18:56.994Z,0.8
2022-12-23T02:21:56.454Z,0.8
2022-12-23T02:24:56.051Z,0.8
2022-12-23T02:27:57.622Z,0.8
2022-12-23T02:30:56.918Z,0.8
2022-12-23T02:33:56.695Z,0.8
2022-12-23T02:36:51.944Z,0.8
2022-12-23T02:39:53.649Z,0.8
2022-12-23T02:42:52.404Z,0.8
2022-12-23T02:45:52.959Z,0.8
2022-12-23T02:48:54.206Z,0.8
2022-12-23T02:51:53.070Z,0.8
2022-12-23T02:54:53.392Z,0.8
2022-12-23T02:57:55.008Z,0.8
2022-12-23T03:00:53.832Z,0.8
2022-12-23T03:03:54.537Z,0.8
2022-12-23T03:06:55.562Z,0.8
2022-12-23T03:09:54.460Z,0.8
2022-12-23T03:12:54.694Z,0.8
2022-12-23T03:15:55.209Z,0.8
2022-12-23T03:18:56.455Z,0.8
2022-12-23T03:21:55.367Z,0.8
2022-12-23T03:24:55.663Z,0.8
2022-12-23T03:27:57.161Z,0.8
2022-12-23T03:30:56.434Z,0.8
2022-12-23T03:33:56.370Z,0.8
2022-12-23T03:36:52.914Z,0.8
2022-12-23T03:39:51.684Z,0.8
2022-12-23T03:42:51.909Z,0.8
2022-12-23T03:45:53.527Z,0.8
2022-12-23T03:48:52.429Z,0.8
2022-12-23T03:51:52.661Z,0.8
2022-12-23T03:54:52.887Z,0.8
2022-12-23T03:57:54.482Z,0.8
2022-12-23T04:00:53.331Z,0.8
2022-12-23T04:03:53.866Z,0.8
2022-12-23T04:06:55.274Z,0.8
2022-12-23T04:09:53.998Z,0.8
2022-12-23T04:12:54.283Z,0.8
2022-12-23T04:15:56.072Z,0.8
2022-12-23T04:18:54.637Z,0.8
2022-12-23T04:21:54.908Z,0.8
2022-12-23T04:24:56.435Z,0.8
2022-12-23T04:27:55.404Z,0.8
2022-12-23T04:30:55.909Z,0.8
2022-12-23T04:33:55.796Z,0.8
2022-12-23T04:36:57.361Z,0.8
2022-12-23T04:39:56.338Z,0.8
2022-12-23T04:42:56.547Z,0.8
2022-12-23T04:45:53.245Z,0.8
2022-12-23T04:48:51.934Z,0.8
2022-12-23T04:51:52.185Z,0.8
2022-12-23T04:54:53.920Z,0.8
2022-12-23T04:57:52.660Z,0.8
2022-12-23T05:00:53.228Z,0.8
2022-12-23T05:03:54.406Z,0.8
2022-12-23T05:06:53.332Z,0.8
2022-12-23T05:09:53.597Z,0.8
2022-12-23T05:12:53.773Z,0.8
2022-12-23T05:15:55.732Z,0.8
2022-12-23T05:18:54.213Z,0.8
2022-12-23T05:21:54.386Z,0.8
2022-12-23T05:24:56.137Z,0.8
2022-12-23T05:27:54.968Z,0.8
2022-12-23T05:30:55.186Z,0.8
2022-12-23T05:34:07.568Z,0.8
2022-12-23T05:36:55.504Z,0.8
2022-12-23T05:39:55.818Z,0.8
2022-12-23T05:42:57.548Z,0.8
2022-12-23T05:45:56.703Z,0.8
2022-12-23T05:48:51.429Z,0.8
2022-12-23T05:51:51.694Z,0.8
2022-12-23T05:54:58.426Z,0.8
2022-12-23T05:57:52.215Z,0.8
2022-12-23T06:00:52.382Z,0.8
2022-12-23T06:03:54.932Z,0.8
2022-12-23T06:06:52.798Z,0.8
2022-12-23T06:09:53.014Z,0.8
2022-12-23T06:12:54.639Z,0.8
2022-12-23T06:15:53.523Z,0.8
2022-12-23T06:18:53.810Z,0.8
2022-12-23T06:21:55.410Z,0.8
2022-12-23T06:24:54.255Z,0.8
2022-12-23T06:27:54.378Z,0.8
2022-12-23T06:30:54.623Z,0.8
2022-12-23T06:33:56.311Z,0.8
2022-12-23T06:36:55.214Z,0.8
2022-12-23T06:39:55.343Z,0.8
2022-12-23T06:42:56.906Z,0.8
2022-12-23T06:45:56.184Z,0.8
2022-12-23T06:48:56.169Z,0.8
2022-12-23T06:51:57.775Z,0.8
2022-12-23T06:54:56.484Z,0.8
2022-12-23T06:57:51.674Z,0.8
2022-12-23T07:00:53.710Z,0.8
2022-12-23T07:03:52.200Z,0.8
2022-12-23T07:06:52.334Z,0.8
2022-12-23T07:09:52.597Z,0.8
2022-12-23T07:12:54.217Z,0.8
2022-12-23T07:15:53.069Z,0.8
2022-12-23T07:18:53.355Z,0.8
2022-12-23T07:21:55.074Z,0.9
2022-12-23T07:24:53.702Z,0.9
2022-12-23T07:27:54.123Z,0.9
2022-12-23T07:30:55.757Z,1
2022-12-23T07:33:54.682Z,1
2022-12-23T07:36:54.784Z,1
2022-12-23T07:39:56.520Z,1.2
2022-12-23T07:42:55.301Z,1.2
2022-12-23T07:46:01.983Z,1.2
2022-12-23T07:48:55.972Z,1.2
2022-12-23T07:51:57.271Z,1.4
2022-12-23T07:54:56.169Z,1.4
2022-12-23T07:57:56.387Z,1.4
2022-12-23T08:00:58.415Z,1.8
2022-12-23T08:03:57.440Z,1.8
2022-12-23T08:06:52.146Z,1.8
2022-12-23T08:10:03.812Z,2.2
2022-12-23T08:12:52.579Z,2.2
2022-12-23T08:15:52.801Z,2.2
2022-12-23T08:18:54.428Z,2.6
2022-12-23T08:21:53.286Z,2.6
2022-12-23T08:24:53.590Z,2.6
2022-12-23T08:27:53.787Z,2.6
2022-12-23T08:30:55.667Z,3
2022-12-23T08:33:54.115Z,3
2022-12-23T08:36:54.285Z,3
2022-12-23T08:39:55.914Z,3.3
2022-12-23T08:42:54.904Z,3.3
2022-12-23T08:45:55.448Z,3.3
2022-12-23T08:48:56.768Z,3.6
2022-12-23T08:51:55.472Z,3.6
2022-12-23T08:54:55.648Z,3.6
2022-12-23T08:57:57.244Z,3.9
2022-12-23T09:00:56.135Z,3.9
2022-12-23T09:03:56.955Z,3.9
2022-12-23T09:06:56.657Z,3.9
2022-12-23T09:09:58.177Z,4
2022-12-23T09:12:58.851Z,4
2022-12-23T09:15:52.570Z,4
2022-12-23T09:18:53.989Z,4.1
2022-12-23T09:21:52.767Z,4.1
2022-12-23T09:24:52.889Z,4.1
2022-12-23T09:27:54.592Z,4.1
2022-12-23T09:30:53.783Z,4.1
2022-12-23T09:33:53.772Z,4.1
2022-12-23T09:36:57.712Z,4.1
2022-12-23T09:39:54.078Z,4.1
2022-12-23T09:42:54.345Z,4.1
2022-12-23T09:45:54.578Z,4.1
2022-12-23T09:48:56.091Z,4.1
2022-12-23T09:51:54.976Z,4.1
2022-12-23T09:54:55.310Z,4.1
2022-12-23T09:57:56.827Z,4.1
2022-12-23T10:00:55.653Z,4.1
2022-12-23T10:03:56.457Z,4.1
2022-12-23T10:07:05.154Z,4.1
2022-12-23T10:09:56.429Z,4.1
2022-12-23T10:12:56.600Z,4.1
2022-12-23T10:15:53.689Z,4.1
2022-12-23T10:18:57.134Z,4.1
2022-12-23T10:22:05.192Z,4.1
2022-12-23T10:24:52.541Z,4.1
2022-12-23T10:27:54.192Z,4.1
2022-12-23T10:31:42.849Z,4.1
2022-12-23T10:33:53.289Z,4.1
2022-12-23T10:36:55.578Z,4.1
2022-12-23T10:39:53.622Z,4.1
2022-12-23T10:42:53.792Z,4.1
2022-12-23T10:45:55.483Z,4.1
2022-12-23T10:48:54.271Z,4.1
2022-12-23T10:51:54.665Z,4.1
2022-12-23T10:54:56.131Z,4.1
2022-12-23T10:57:55.095Z,4.1
2022-12-23T11:00:55.915Z,4.1
2022-12-23T11:03:57.068Z,4.1
2022-12-23T11:07:47.274Z,4.1
2022-12-23T11:09:55.974Z,4.1
2022-12-23T11:12:56.220Z,4.1
2022-12-23T11:15:58.066Z,4.1
2022-12-23T11:18:56.625Z,4.1
2022-12-23T11:21:52.583Z,4.1
2022-12-23T11:24:58.474Z,4.1
2022-12-23T11:27:53.101Z,4.1
2022-12-23T11:30:57.685Z,4.1
2022-12-23T11:33:54.215Z,4.1
2022-12-23T11:37:08.225Z,4.1
2022-12-23T11:39:53.184Z,4.1
2022-12-23T11:42:57.320Z,4.1
2022-12-23T11:45:54.043Z,4.1
2022-12-23T11:48:55.646Z,4.1
2022-12-23T11:51:54.164Z,4.1
2022-12-23T11:54:56.927Z,4.1
2022-12-23T11:57:54.522Z,4.1
2022-12-23T12:00:57.019Z,4.1
2022-12-23T12:03:56.888Z,4.1
2022-12-23T12:06:57.551Z,4.1
2022-12-23T12:09:55.552Z,4.1
2022-12-23T12:12:57.255Z,4.1
2022-12-23T12:15:56.014Z,4.1
2022-12-23T12:18:56.677Z,4.1
2022-12-23T12:21:57.810Z,4.1
2022-12-23T12:24:51.718Z,4.1
2022-12-23T12:27:51.895Z,4.1
2022-12-23T12:30:52.549Z,4.1
2022-12-23T12:33:54.560Z,4.1
2022-12-23T12:36:53.422Z,4.1
2022-12-23T12:39:57.830Z,4.1
2022-12-23T12:42:54.471Z,4.1
2022-12-23T12:45:53.700Z,4.1
2022-12-23T12:48:53.431Z,4.1
2022-12-23T12:51:55.053Z,4.1
2022-12-23T12:54:53.830Z,4.1
2022-12-23T12:57:54.184Z,4.1
2022-12-23T13:00:56.199Z,4.2
2022-12-23T13:03:54.664Z,4.2
2022-12-23T13:06:54.881Z,4.2
2022-12-23T13:09:55.027Z,4.2
2022-12-23T13:12:56.615Z,4.2
2022-12-23T13:15:55.551Z,4.2
2022-12-23T13:18:55.619Z,4.2
2022-12-23T13:21:57.352Z,4.2
2022-12-23T13:24:56.283Z,4.2
2022-12-23T13:27:51.553Z,4.2
2022-12-23T13:30:58.365Z,4.2
2022-12-23T13:33:56.826Z,4.2
2022-12-23T13:36:52.613Z,4.2
2022-12-23T13:39:54.376Z,4.2
2022-12-23T13:42:52.449Z,4.2
2022-12-23T13:45:53.054Z,4.2
2022-12-23T13:48:52.968Z,4.2
2022-12-23T13:51:54.716Z,4.2
2022-12-23T13:54:53.365Z,4.2
2022-12-23T13:57:53.607Z,4.2
2022-12-23T14:00:55.297Z,4.2
2022-12-23T14:03:54.190Z,4.2
2022-12-23T14:06:54.437Z,4.2
2022-12-23T14:09:55.957Z,4.2
2022-12-23T14:12:54.741Z,4.2
2022-12-23T14:15:55.405Z,4.2
2022-12-23T14:18:56.692Z,4.1
2022-12-23T14:21:55.635Z,4.1
2022-12-23T14:24:55.695Z,4.1
2022-12-23T14:27:55.971Z,4.1
2022-12-23T14:30:57.924Z,4.1
2022-12-23T14:33:56.361Z,4.1
2022-12-23T14:36:56.625Z,4.1
2022-12-23T14:39:58.291Z,4
2022-12-23T14:42:52.174Z,4
2022-12-23T14:45:52.354Z,4
2022-12-23T14:49:42.709Z,3.9
2022-12-23T14:51:52.805Z,3.9
2022-12-23T14:55:33.466Z,3.9
2022-12-23T14:57:54.483Z,3.7
2022-12-23T15:00:53.372Z,3.7
2022-12-23T15:04:02.588Z,3.7
2022-12-23T15:06:53.921Z,3.7
2022-12-23T15:10:03.758Z,3.4
2022-12-23T15:12:54.309Z,3.4
2022-12-23T15:16:03.117Z,3.4
2022-12-23T15:18:56.093Z,3.1
2022-12-23T15:22:32.985Z,3.1
2022-12-23T15:24:55.173Z,3.1
2022-12-23T15:28:04.729Z,2.7
2022-12-23T15:31:02.164Z,2.7
2022-12-23T15:34:17.964Z,2.7
2022-12-23T15:36:57.520Z,2.3
2022-12-23T15:40:14.258Z,2.3
2022-12-23T15:42:56.687Z,2.3
2022-12-23T15:45:51.921Z,2.3
2022-12-23T15:48:53.860Z,1.9
2022-12-23T15:52:21.111Z,1.9
2022-12-23T15:54:53.464Z,1.9
2022-12-23T15:57:54.246Z,1.6
2022-12-23T16:01:02.975Z,1.6
2022-12-23T16:03:54.397Z,1.6
2022-12-23T16:06:54.895Z,1.3
2022-12-23T16:09:53.675Z,1.3
2022-12-23T16:12:53.809Z,1.3
2022-12-23T16:15:55.742Z,1
2022-12-23T16:18:54.224Z,1
2022-12-23T16:21:54.532Z,1
2022-12-23T16:24:54.675Z,1
2022-12-23T16:27:56.257Z,0.9
2022-12-23T16:30:55.153Z,0.9
2022-12-23T16:33:55.295Z,0.9
2022-12-23T16:36:57.000Z,0.8
2022-12-23T16:39:55.906Z,0.8
2022-12-23T16:42:56.023Z,0.8
2022-12-23T16:45:58.229Z,0.8
2022-12-23T16:48:51.586Z,0.8
2022-12-23T16:51:56.777Z,0.8
2022-12-23T16:54:54.556Z,0.8
2022-12-23T16:57:53.001Z,0.8
2022-12-23T17:00:53.538Z,0.8
2022-12-23T17:03:52.616Z,0.8
2022-12-23T17:06:54.400Z,0.8
2022-12-23T17:09:53.052Z,0.8
2022-12-23T17:12:53.343Z,0.8
2022-12-23T17:15:54.840Z,0.8
2022-12-23T17:18:54.146Z,0.8
2022-12-23T17:21:54.007Z,0.8
2022-12-23T17:24:55.563Z,0.8
2022-12-23T17:27:54.380Z,0.8
2022-12-23T17:30:54.659Z,0.8
2022-12-23T17:33:56.366Z,0.8
2022-12-23T17:36:55.559Z,0.8
2022-12-23T17:39:55.393Z,0.8
2022-12-23T17:42:55.657Z,0.8
2022-12-23T17:45:57.601Z,0.8
2022-12-23T17:48:56.049Z,0.8
2022-12-23T17:51:56.314Z,0.8
2022-12-23T17:54:57.852Z,0.8
2022-12-23T17:57:51.682Z,0.8
2022-12-23T18:00:53.129Z,0.8
2022-12-23T18:03:53.504Z,0.8
2022-12-23T18:06:52.346Z,0.8
2022-12-23T18:09:52.975Z,0.8
2022-12-23T18:13:04.103Z,0.8
2022-12-23T18:15:53.130Z,0.8
2022-12-23T18:18:53.410Z,0.8
2022-12-23T18:21:53.673Z,0.8
2022-12-23T18:25:01.274Z,0.8
2022-12-23T18:27:54.067Z,0.8
2022-12-23T18:30:54.483Z,0.8
2022-12-23T18:33:55.901Z,0.8
2022-12-23T18:36:55.150Z,0.8
2022-12-23T18:39:54.948Z,0.8
2022-12-23T18:42:56.484Z,0.8
2022-12-23T18:45:55.757Z,0.8
2022-12-23T18:48:55.591Z,0.8
2022-12-23T18:51:57.165Z,0.8
2022-12-23T18:54:56.054Z,0.8
2022-12-23T18:57:56.310Z,0.8
2022-12-23T19:01:01.684Z,0.8
2022-12-23T19:03:58.052Z,0.8
2022-12-23T19:06:57.119Z,0.8
2022-12-23T19:09:52.055Z,0.8
2022-12-23T19:12:53.676Z,0.8
2022-12-23T19:15:52.924Z,0.8
2022-12-23T19:18:53.279Z,0.8
2022-12-23T19:21:54.620Z,0.8
2022-12-23T19:25:07.309Z,0.8
2022-12-23T19:27:53.442Z,0.8
2022-12-23T19:30:55.369Z,0.8
2022-12-23T19:33:54.035Z,0.8
2022-12-23T19:36:54.265Z,0.8
2022-12-23T19:39:54.444Z,0.8
2022-12-23T19:42:56.044Z,0.8
2022-12-23T19:45:55.067Z,0.8
2022-12-23T19:48:55.182Z,0.8
2022-12-23T19:51:56.768Z,0.8
2022-12-23T19:54:55.498Z,0.8
2022-12-23T19:57:55.748Z,0.8
2022-12-23T20:00:57.350Z,0.8
2022-12-23T20:03:56.205Z,0.8
2022-12-23T20:06:56.560Z,0.8
2022-12-23T20:09:53.036Z,0.8
2022-12-23T20:12:56.886Z,0.8
2022-12-23T20:15:53.520Z,0.8
2022-12-23T20:18:52.452Z,0.8
2022-12-23T20:21:54.043Z,0.8
2022-12-23T20:24:52.832Z,0.8
2022-12-23T20:27:53.007Z,0.8
2022-12-23T20:30:54.812Z,0.8
2022-12-23T20:33:53.464Z,0.8
2022-12-23T20:36:53.776Z,0.8
2022-12-23T20:39:55.302Z,0.8
2022-12-23T20:42:54.138Z,0.8
2022-12-23T20:45:54.397Z,0.8
2022-12-23T20:48:55.991Z,0.8
2022-12-23T20:51:54.902Z,0.8
2022-12-23T20:54:55.070Z,0.8
2022-12-23T20:57:56.723Z,0.8
2022-12-23T21:00:55.577Z,0.8
2022-12-23T21:03:55.793Z,0.8
2022-12-23T21:06:55.956Z,0.8
2022-12-23T21:09:57.744Z,0.8
2022-12-23T21:12:56.531Z,0.8
2022-12-23T21:15:52.066Z,0.8
2022-12-23T21:18:53.317Z,0.8
2022-12-23T21:21:52.125Z,0.8
2022-12-23T21:24:52.308Z,0.8
2022-12-23T21:27:54.032Z,0.8
2022-12-23T21:30:53.786Z,0.8
2022-12-23T21:33:52.998Z,0.8
2022-12-23T21:36:55.287Z,0.8
2022-12-23T21:39:53.573Z,0.8
2022-12-23T21:42:53.771Z,0.8
2022-12-23T21:45:54.036Z,0.8
2022-12-23T21:48:55.557Z,0.8
2022-12-23T21:51:54.373Z,0.8
2022-12-23T21:54:54.803Z,0.8
2022-12-23T21:57:56.343Z,0.8
2022-12-23T22:00:55.482Z,0.8
2022-12-23T22:03:55.267Z,0.8
2022-12-23T22:06:56.871Z,0.8
2022-12-23T22:09:55.786Z,0.8
2022-12-23T22:12:55.983Z,0.8
2022-12-23T22:15:57.882Z,0.8
2022-12-23T22:18:56.435Z,0.8
2022-12-23T22:21:56.629Z,0.8
2022-12-23T22:24:51.956Z,0.8
2022-12-23T22:27:53.620Z,0.8
2022-12-23T22:30:52.322Z,0.8
2022-12-23T22:33:52.597Z,0.8
2022-12-23T22:36:59.295Z,0.8
2022-12-23T22:39:53.073Z,0.8
2022-12-23T22:42:53.338Z,0.8
2022-12-23T22:45:55.689Z,0.8
2022-12-23T22:48:53.845Z,0.8
2022-12-23T22:51:54.015Z,0.8
2022-12-23T22:54:55.560Z,0.8
2022-12-23T22:57:54.345Z,0.8
2022-12-23T23:00:54.750Z,0.8
2022-12-23T23:03:54.872Z,0.8
2022-12-23T23:06:56.513Z,0.8
2022-12-23T23:09:55.296Z,0.8
2022-12-23T23:12:55.517Z,0.8
2022-12-23T23:15:57.226Z,0.8
2022-12-23T23:18:56.103Z,0.8
2022-12-23T23:21:56.307Z,0.8
2022-12-23T23:24:52.754Z,0.8
2022-12-23T23:27:51.616Z,0.8
2022-12-23T23:31:45.230Z,0.8
2022-12-23T23:33:53.585Z,0.8
2022-12-23T23:36:52.305Z,0.8
2022-12-23T23:39:52.590Z,0.8
2022-12-23T23:42:52.853Z,0.8
2022-12-23T23:45:54.933Z,0.8
2022-12-23T23:48:53.313Z,0.8
2022-12-23T23:51:53.563Z,0.8
2022-12-23T23:54:55.027Z,0.8
2022-12-23T23:57:53.896Z,0.8
